sensor_id;sensor_type;location;lat;lon;timestamp;P1;durP1;ratioP1;P2;durP2;ratioP2
42124;SDS011;27787;44.594;11.046;2023-04-24T00:00:57;6.78;;;2.10;;
42124;SDS011;27787;44.594;11.046;2023-04-24T00:03:42;8.82;;;2.20;;
42124;SDS011;27787;44.594;11.046;2023-04-24T00:06:26;6.13;;;2.08;;
42124;SDS011;27787;44.594;11.046;2023-04-24T00:09:17;3.72;;;1.70;;
42124;SDS011;27787;44.594;11.046;2023-04-24T00:12:01;4.25;;;1.77;;
42124;SDS011;27787;44.594;11.046;2023-04-24T00:14:48;3.97;;;1.63;;
42124;SDS011;27787;44.594;11.046;2023-04-24T00:17:32;6.78;;;2.65;;
42124;SDS011;27787;44.594;11.046;2023-04-24T00:20:16;6.10;;;2.33;;
42124;SDS011;27787;44.594;11.046;2023-04-24T00:23:00;7.90;;;2.58;;
42124;SDS011;27787;44.594;11.046;2023-04-24T00:25:44;3.88;;;1.90;;
42124;SDS011;27787;44.594;11.046;2023-04-24T00:28:28;2.72;;;1.95;;
42124;SDS011;27787;44.594;11.046;2023-04-24T00:31:14;3.67;;;2.17;;
42124;SDS011;27787;44.594;11.046;2023-04-24T00:33:58;7.20;;;2.20;;
42124;SDS011;27787;44.594;11.046;2023-04-24T00:36:43;6.20;;;2.10;;
42124;SDS011;27787;44.594;11.046;2023-04-24T00:39:27;7.07;;;2.47;;
42124;SDS011;27787;44.594;11.046;2023-04-24T00:42:11;4.85;;;2.28;;
42124;SDS011;27787;44.594;11.046;2023-04-24T00:44:56;3.97;;;2.33;;
42124;SDS011;27787;44.594;11.046;2023-04-24T00:47:41;10.45;;;2.83;;
42124;SDS011;27787;44.594;11.046;2023-04-24T00:50:26;3.83;;;2.40;;
42124;SDS011;27787;44.594;11.046;2023-04-24T00:53:10;7.75;;;3.08;;
42124;SDS011;27787;44.594;11.046;2023-04-24T00:55:55;4.63;;;2.30;;
42124;SDS011;27787;44.594;11.046;2023-04-24T00:58:40;2.97;;;2.08;;
42124;SDS011;27787;44.594;11.046;2023-04-24T01:01:25;6.40;;;2.70;;
42124;SDS011;27787;44.594;11.046;2023-04-24T01:04:10;5.75;;;3.17;;
42124;SDS011;27787;44.594;11.046;2023-04-24T01:06:55;6.75;;;2.78;;
42124;SDS011;27787;44.594;11.046;2023-04-24T01:09:40;7.28;;;2.80;;
42124;SDS011;27787;44.594;11.046;2023-04-24T01:12:28;5.63;;;3.03;;
42124;SDS011;27787;44.594;11.046;2023-04-24T01:15:12;5.53;;;2.75;;
42124;SDS011;27787;44.594;11.046;2023-04-24T01:17:56;5.22;;;2.97;;
42124;SDS011;27787;44.594;11.046;2023-04-24T01:20:40;7.97;;;2.38;;
42124;SDS011;27787;44.594;11.046;2023-04-24T01:23:27;5.47;;;2.67;;
42124;SDS011;27787;44.594;11.046;2023-04-24T01:26:12;7.55;;;3.05;;
42124;SDS011;27787;44.594;11.046;2023-04-24T01:29:00;5.47;;;2.60;;
42124;SDS011;27787;44.594;11.046;2023-04-24T01:31:45;7.40;;;2.55;;
42124;SDS011;27787;44.594;11.046;2023-04-24T01:34:30;6.57;;;2.78;;
42124;SDS011;27787;44.594;11.046;2023-04-24T01:37:15;5.22;;;2.38;;
42124;SDS011;27787;44.594;11.046;2023-04-24T01:39:59;9.20;;;2.90;;
42124;SDS011;27787;44.594;11.046;2023-04-24T01:42:44;5.82;;;2.63;;
42124;SDS011;27787;44.594;11.046;2023-04-24T01:45:28;3.38;;;2.53;;
42124;SDS011;27787;44.594;11.046;2023-04-24T01:48:13;6.80;;;2.67;;
42124;SDS011;27787;44.594;11.046;2023-04-24T01:50:58;5.90;;;3.13;;
42124;SDS011;27787;44.594;11.046;2023-04-24T01:53:42;10.35;;;2.92;;
42124;SDS011;27787;44.594;11.046;2023-04-24T01:56:28;7.15;;;2.83;;
42124;SDS011;27787;44.594;11.046;2023-04-24T01:59:13;5.00;;;3.28;;
42124;SDS011;27787;44.594;11.046;2023-04-24T02:02:00;6.07;;;3.22;;
42124;SDS011;27787;44.594;11.046;2023-04-24T02:04:45;7.85;;;2.95;;
42124;SDS011;27787;44.594;11.046;2023-04-24T02:07:29;5.28;;;3.22;;
42124;SDS011;27787;44.594;11.046;2023-04-24T02:10:13;10.50;;;3.17;;
42124;SDS011;27787;44.594;11.046;2023-04-24T02:13:00;8.77;;;3.83;;
42124;SDS011;27787;44.594;11.046;2023-04-24T02:15:45;5.40;;;3.10;;
42124;SDS011;27787;44.594;11.046;2023-04-24T02:18:29;9.85;;;3.33;;
42124;SDS011;27787;44.594;11.046;2023-04-24T02:21:14;6.03;;;3.13;;
42124;SDS011;27787;44.594;11.046;2023-04-24T02:23:59;5.90;;;3.50;;
42124;SDS011;27787;44.594;11.046;2023-04-24T02:26:43;10.15;;;3.95;;
42124;SDS011;27787;44.594;11.046;2023-04-24T02:29:27;11.93;;;3.50;;
42124;SDS011;27787;44.594;11.046;2023-04-24T02:32:11;5.63;;;2.78;;
42124;SDS011;27787;44.594;11.046;2023-04-24T02:34:56;8.38;;;3.25;;
42124;SDS011;27787;44.594;11.046;2023-04-24T02:37:40;6.80;;;3.17;;
42124;SDS011;27787;44.594;11.046;2023-04-24T02:40:24;8.75;;;3.17;;
42124;SDS011;27787;44.594;11.046;2023-04-24T02:43:08;9.05;;;3.45;;
42124;SDS011;27787;44.594;11.046;2023-04-24T02:45:53;4.30;;;3.03;;
42124;SDS011;27787;44.594;11.046;2023-04-24T02:48:37;5.13;;;3.30;;
42124;SDS011;27787;44.594;11.046;2023-04-24T02:51:21;7.80;;;3.30;;
42124;SDS011;27787;44.594;11.046;2023-04-24T02:54:06;9.27;;;3.53;;
42124;SDS011;27787;44.594;11.046;2023-04-24T02:56:52;5.07;;;2.75;;
42124;SDS011;27787;44.594;11.046;2023-04-24T02:59:37;5.22;;;3.45;;
42124;SDS011;27787;44.594;11.046;2023-04-24T03:02:21;5.45;;;3.20;;
42124;SDS011;27787;44.594;11.046;2023-04-24T03:05:06;7.82;;;3.70;;
42124;SDS011;27787;44.594;11.046;2023-04-24T03:07:51;8.55;;;3.45;;
42124;SDS011;27787;44.594;11.046;2023-04-24T03:10:36;8.60;;;4.00;;
42124;SDS011;27787;44.594;11.046;2023-04-24T03:13:20;7.80;;;3.75;;
42124;SDS011;27787;44.594;11.046;2023-04-24T03:16:04;9.65;;;4.28;;
42124;SDS011;27787;44.594;11.046;2023-04-24T03:18:49;8.77;;;4.00;;
42124;SDS011;27787;44.594;11.046;2023-04-24T03:21:33;13.32;;;4.95;;
42124;SDS011;27787;44.594;11.046;2023-04-24T03:24:20;8.88;;;4.68;;
42124;SDS011;27787;44.594;11.046;2023-04-24T03:27:04;6.30;;;4.05;;
42124;SDS011;27787;44.594;11.046;2023-04-24T03:30:18;7.32;;;4.22;;
42124;SDS011;27787;44.594;11.046;2023-04-24T03:33:08;10.10;;;4.00;;
42124;SDS011;27787;44.594;11.046;2023-04-24T03:35:58;14.43;;;4.80;;
42124;SDS011;27787;44.594;11.046;2023-04-24T03:38:43;8.30;;;4.18;;
42124;SDS011;27787;44.594;11.046;2023-04-24T03:41:59;8.13;;;4.30;;
42124;SDS011;27787;44.594;11.046;2023-04-24T03:44:54;5.53;;;3.80;;
42124;SDS011;27787;44.594;11.046;2023-04-24T03:47:42;9.95;;;4.57;;
42124;SDS011;27787;44.594;11.046;2023-04-24T03:50:26;8.50;;;4.10;;
42124;SDS011;27787;44.594;11.046;2023-04-24T03:53:10;9.20;;;4.00;;
42124;SDS011;27787;44.594;11.046;2023-04-24T03:55:57;9.10;;;4.78;;
42124;SDS011;27787;44.594;11.046;2023-04-24T03:58:42;10.77;;;4.85;;
42124;SDS011;27787;44.594;11.046;2023-04-24T04:01:28;24.13;;;10.77;;
42124;SDS011;27787;44.594;11.046;2023-04-24T04:04:24;26.83;;;10.63;;
42124;SDS011;27787;44.594;11.046;2023-04-24T04:07:08;15.27;;;5.75;;
42124;SDS011;27787;44.594;11.046;2023-04-24T04:09:52;8.18;;;4.55;;
42124;SDS011;27787;44.594;11.046;2023-04-24T04:12:36;15.52;;;4.97;;
42124;SDS011;27787;44.594;11.046;2023-04-24T04:15:21;10.00;;;5.70;;
42124;SDS011;27787;44.594;11.046;2023-04-24T04:18:07;8.25;;;5.15;;
42124;SDS011;27787;44.594;11.046;2023-04-24T04:20:52;9.18;;;5.18;;
42124;SDS011;27787;44.594;11.046;2023-04-24T04:23:36;10.15;;;6.28;;
42124;SDS011;27787;44.594;11.046;2023-04-24T04:26:41;13.20;;;6.38;;
42124;SDS011;27787;44.594;11.046;2023-04-24T04:29:30;10.60;;;6.25;;
42124;SDS011;27787;44.594;11.046;2023-04-24T04:32:20;8.05;;;5.95;;
42124;SDS011;27787;44.594;11.046;2023-04-24T04:35:05;12.65;;;7.47;;
42124;SDS011;27787;44.594;11.046;2023-04-24T04:37:51;14.20;;;7.03;;
42124;SDS011;27787;44.594;11.046;2023-04-24T04:40:46;12.05;;;7.65;;
42124;SDS011;27787;44.594;11.046;2023-04-24T04:43:31;16.83;;;9.20;;
42124;SDS011;27787;44.594;11.046;2023-04-24T04:46:16;15.35;;;8.82;;
42124;SDS011;27787;44.594;11.046;2023-04-24T04:49:33;14.45;;;8.98;;
42124;SDS011;27787;44.594;11.046;2023-04-24T04:52:19;16.08;;;10.10;;
42124;SDS011;27787;44.594;11.046;2023-04-24T04:55:07;16.98;;;10.50;;
42124;SDS011;27787;44.594;11.046;2023-04-24T04:58:12;18.40;;;10.55;;
42124;SDS011;27787;44.594;11.046;2023-04-24T05:00:56;19.67;;;11.07;;
42124;SDS011;27787;44.594;11.046;2023-04-24T05:03:48;17.17;;;10.18;;
42124;SDS011;27787;44.594;11.046;2023-04-24T05:09:18;22.55;;;11.27;;
42124;SDS011;27787;44.594;11.046;2023-04-24T05:12:10;21.60;;;11.98;;
42124;SDS011;27787;44.594;11.046;2023-04-24T05:15:03;19.98;;;11.07;;
42124;SDS011;27787;44.594;11.046;2023-04-24T05:17:48;16.05;;;10.02;;
42124;SDS011;27787;44.594;11.046;2023-04-24T05:20:32;17.63;;;10.05;;
42124;SDS011;27787;44.594;11.046;2023-04-24T05:23:16;19.25;;;11.40;;
42124;SDS011;27787;44.594;11.046;2023-04-24T05:26:04;17.92;;;10.98;;
42124;SDS011;27787;44.594;11.046;2023-04-24T05:28:48;19.98;;;10.45;;
42124;SDS011;27787;44.594;11.046;2023-04-24T05:31:34;18.35;;;11.55;;
42124;SDS011;27787;44.594;11.046;2023-04-24T05:34:19;21.52;;;11.07;;
42124;SDS011;27787;44.594;11.046;2023-04-24T05:37:09;21.77;;;10.95;;
42124;SDS011;27787;44.594;11.046;2023-04-24T05:39:54;18.40;;;11.35;;
42124;SDS011;27787;44.594;11.046;2023-04-24T05:42:38;25.92;;;13.43;;
42124;SDS011;27787;44.594;11.046;2023-04-24T05:45:22;24.20;;;12.02;;
42124;SDS011;27787;44.594;11.046;2023-04-24T05:48:06;23.05;;;11.98;;
42124;SDS011;27787;44.594;11.046;2023-04-24T05:50:51;20.13;;;12.00;;
42124;SDS011;27787;44.594;11.046;2023-04-24T05:53:36;18.52;;;10.98;;
42124;SDS011;27787;44.594;11.046;2023-04-24T05:56:20;23.80;;;12.30;;
42124;SDS011;27787;44.594;11.046;2023-04-24T05:59:06;21.27;;;12.27;;
42124;SDS011;27787;44.594;11.046;2023-04-24T06:01:52;19.58;;;11.70;;
42124;SDS011;27787;44.594;11.046;2023-04-24T06:04:38;19.08;;;12.25;;
42124;SDS011;27787;44.594;11.046;2023-04-24T06:07:23;17.17;;;11.55;;
42124;SDS011;27787;44.594;11.046;2023-04-24T06:10:10;20.95;;;11.77;;
42124;SDS011;27787;44.594;11.046;2023-04-24T06:12:59;22.10;;;11.93;;
42124;SDS011;27787;44.594;11.046;2023-04-24T06:15:44;19.42;;;11.15;;
42124;SDS011;27787;44.594;11.046;2023-04-24T06:18:34;18.73;;;11.52;;
42124;SDS011;27787;44.594;11.046;2023-04-24T06:21:20;17.50;;;11.10;;
42124;SDS011;27787;44.594;11.046;2023-04-24T06:24:04;19.67;;;10.98;;
42124;SDS011;27787;44.594;11.046;2023-04-24T06:26:49;19.85;;;12.18;;
42124;SDS011;27787;44.594;11.046;2023-04-24T06:29:33;19.52;;;11.70;;
42124;SDS011;27787;44.594;11.046;2023-04-24T06:32:18;18.70;;;11.30;;
42124;SDS011;27787;44.594;11.046;2023-04-24T06:35:02;19.40;;;10.90;;
42124;SDS011;27787;44.594;11.046;2023-04-24T06:37:46;18.77;;;11.35;;
42124;SDS011;27787;44.594;11.046;2023-04-24T06:40:30;20.63;;;11.93;;
42124;SDS011;27787;44.594;11.046;2023-04-24T06:43:14;22.90;;;12.13;;
42124;SDS011;27787;44.594;11.046;2023-04-24T06:45:59;18.77;;;12.50;;
42124;SDS011;27787;44.594;11.046;2023-04-24T06:48:44;20.23;;;12.00;;
42124;SDS011;27787;44.594;11.046;2023-04-24T06:51:28;20.65;;;12.70;;
42124;SDS011;27787;44.594;11.046;2023-04-24T06:54:12;24.80;;;13.73;;
42124;SDS011;27787;44.594;11.046;2023-04-24T06:56:56;23.73;;;13.35;;
42124;SDS011;27787;44.594;11.046;2023-04-24T06:59:40;24.90;;;13.45;;
42124;SDS011;27787;44.594;11.046;2023-04-24T07:02:25;23.52;;;13.05;;
42124;SDS011;27787;44.594;11.046;2023-04-24T07:05:09;23.08;;;13.63;;
42124;SDS011;27787;44.594;11.046;2023-04-24T07:07:53;23.52;;;12.38;;
42124;SDS011;27787;44.594;11.046;2023-04-24T07:10:37;23.27;;;12.20;;
42124;SDS011;27787;44.594;11.046;2023-04-24T07:13:22;32.28;;;12.00;;
42124;SDS011;27787;44.594;11.046;2023-04-24T07:16:07;21.13;;;11.55;;
42124;SDS011;27787;44.594;11.046;2023-04-24T07:18:52;21.60;;;12.27;;
42124;SDS011;27787;44.594;11.046;2023-04-24T07:21:36;22.17;;;11.65;;
42124;SDS011;27787;44.594;11.046;2023-04-24T07:24:20;16.60;;;11.05;;
42124;SDS011;27787;44.594;11.046;2023-04-24T07:27:04;19.15;;;12.27;;
42124;SDS011;27787;44.594;11.046;2023-04-24T07:29:48;17.63;;;11.05;;
42124;SDS011;27787;44.594;11.046;2023-04-24T07:32:32;20.42;;;11.32;;
42124;SDS011;27787;44.594;11.046;2023-04-24T07:35:16;21.25;;;11.52;;
42124;SDS011;27787;44.594;11.046;2023-04-24T07:38:01;20.40;;;11.32;;
42124;SDS011;27787;44.594;11.046;2023-04-24T07:40:45;22.85;;;11.63;;
42124;SDS011;27787;44.594;11.046;2023-04-24T07:43:29;20.65;;;11.63;;
42124;SDS011;27787;44.594;11.046;2023-04-24T07:46:14;17.92;;;10.52;;
42124;SDS011;27787;44.594;11.046;2023-04-24T07:48:58;19.08;;;11.00;;
42124;SDS011;27787;44.594;11.046;2023-04-24T07:51:44;19.52;;;11.05;;
42124;SDS011;27787;44.594;11.046;2023-04-24T07:54:29;14.80;;;9.90;;
42124;SDS011;27787;44.594;11.046;2023-04-24T07:57:13;17.20;;;10.10;;
42124;SDS011;27787;44.594;11.046;2023-04-24T07:59:58;18.20;;;10.57;;
42124;SDS011;27787;44.594;11.046;2023-04-24T08:02:42;19.05;;;10.05;;
42124;SDS011;27787;44.594;11.046;2023-04-24T08:05:25;17.20;;;11.18;;
42124;SDS011;27787;44.594;11.046;2023-04-24T08:08:11;15.15;;;10.85;;
42124;SDS011;27787;44.594;11.046;2023-04-24T08:10:55;21.95;;;11.05;;
42124;SDS011;27787;44.594;11.046;2023-04-24T08:13:40;19.63;;;10.93;;
42124;SDS011;27787;44.594;11.046;2023-04-24T08:16:24;21.15;;;10.85;;
42124;SDS011;27787;44.594;11.046;2023-04-24T08:19:08;16.02;;;10.18;;
42124;SDS011;27787;44.594;11.046;2023-04-24T08:21:53;18.23;;;8.88;;
42124;SDS011;27787;44.594;11.046;2023-04-24T08:24:38;14.63;;;8.57;;
42124;SDS011;27787;44.594;11.046;2023-04-24T08:27:26;13.73;;;8.02;;
42124;SDS011;27787;44.594;11.046;2023-04-24T08:30:10;15.40;;;7.80;;
42124;SDS011;27787;44.594;11.046;2023-04-24T08:32:54;11.60;;;7.97;;
42124;SDS011;27787;44.594;11.046;2023-04-24T08:35:38;12.32;;;7.85;;
42124;SDS011;27787;44.594;11.046;2023-04-24T08:38:23;13.52;;;6.97;;
42124;SDS011;27787;44.594;11.046;2023-04-24T08:41:07;8.05;;;5.30;;
42124;SDS011;27787;44.594;11.046;2023-04-24T08:43:53;9.20;;;4.45;;
42124;SDS011;27787;44.594;11.046;2023-04-24T08:46:39;7.38;;;4.70;;
42124;SDS011;27787;44.594;11.046;2023-04-24T08:49:24;11.57;;;6.63;;
42124;SDS011;27787;44.594;11.046;2023-04-24T08:52:10;10.90;;;5.70;;
42124;SDS011;27787;44.594;11.046;2023-04-24T08:54:56;8.18;;;4.65;;
42124;SDS011;27787;44.594;11.046;2023-04-24T08:57:42;8.15;;;4.45;;
42124;SDS011;27787;44.594;11.046;2023-04-24T09:00:28;9.80;;;5.00;;
42124;SDS011;27787;44.594;11.046;2023-04-24T09:03:14;7.15;;;4.60;;
42124;SDS011;27787;44.594;11.046;2023-04-24T09:05:59;8.52;;;4.00;;
42124;SDS011;27787;44.594;11.046;2023-04-24T09:08:45;7.03;;;4.10;;
42124;SDS011;27787;44.594;11.046;2023-04-24T09:11:32;5.95;;;4.00;;
42124;SDS011;27787;44.594;11.046;2023-04-24T09:14:16;7.15;;;4.47;;
42124;SDS011;27787;44.594;11.046;2023-04-24T09:17:01;8.45;;;3.88;;
42124;SDS011;27787;44.594;11.046;2023-04-24T09:19:46;11.23;;;4.68;;
42124;SDS011;27787;44.594;11.046;2023-04-24T09:22:30;11.13;;;4.70;;
42124;SDS011;27787;44.594;11.046;2023-04-24T09:25:15;7.07;;;5.28;;
42124;SDS011;27787;44.594;11.046;2023-04-24T09:28:00;11.80;;;5.13;;
42124;SDS011;27787;44.594;11.046;2023-04-24T09:30:46;8.85;;;5.00;;
42124;SDS011;27787;44.594;11.046;2023-04-24T09:34:04;8.43;;;5.35;;
42124;SDS011;27787;44.594;11.046;2023-04-24T09:36:52;9.82;;;5.72;;
42124;SDS011;27787;44.594;11.046;2023-04-24T09:39:36;7.88;;;5.43;;
42124;SDS011;27787;44.594;11.046;2023-04-24T09:42:21;10.70;;;5.95;;
42124;SDS011;27787;44.594;11.046;2023-04-24T09:45:09;8.38;;;5.30;;
42124;SDS011;27787;44.594;11.046;2023-04-24T09:47:55;6.93;;;4.28;;
42124;SDS011;27787;44.594;11.046;2023-04-24T09:50:39;7.30;;;4.70;;
42124;SDS011;27787;44.594;11.046;2023-04-24T09:53:30;10.23;;;4.57;;
42124;SDS011;27787;44.594;11.046;2023-04-24T09:56:15;7.05;;;3.88;;
42124;SDS011;27787;44.594;11.046;2023-04-24T09:59:06;8.02;;;3.88;;
42124;SDS011;27787;44.594;11.046;2023-04-24T10:01:50;6.85;;;4.28;;
42124;SDS011;27787;44.594;11.046;2023-04-24T10:04:36;9.93;;;4.40;;
42124;SDS011;27787;44.594;11.046;2023-04-24T10:07:20;7.32;;;4.45;;
42124;SDS011;27787;44.594;11.046;2023-04-24T10:10:04;7.28;;;4.35;;
42124;SDS011;27787;44.594;11.046;2023-04-24T10:12:48;6.07;;;3.70;;
42124;SDS011;27787;44.594;11.046;2023-04-24T10:15:34;8.23;;;4.45;;
42124;SDS011;27787;44.594;11.046;2023-04-24T10:18:20;6.75;;;4.28;;
42124;SDS011;27787;44.594;11.046;2023-04-24T10:21:05;11.95;;;4.32;;
42124;SDS011;27787;44.594;11.046;2023-04-24T10:23:49;9.85;;;4.90;;
42124;SDS011;27787;44.594;11.046;2023-04-24T10:26:34;10.05;;;5.78;;
42124;SDS011;27787;44.594;11.046;2023-04-24T10:29:19;7.43;;;4.78;;
42124;SDS011;27787;44.594;11.046;2023-04-24T10:32:06;7.50;;;4.78;;
42124;SDS011;27787;44.594;11.046;2023-04-24T10:34:51;9.43;;;4.90;;
42124;SDS011;27787;44.594;11.046;2023-04-24T10:37:39;6.55;;;3.60;;
42124;SDS011;27787;44.594;11.046;2023-04-24T10:40:35;10.88;;;4.55;;
42124;SDS011;27787;44.594;11.046;2023-04-24T10:43:20;10.40;;;5.45;;
42124;SDS011;27787;44.594;11.046;2023-04-24T10:46:05;7.47;;;4.30;;
42124;SDS011;27787;44.594;11.046;2023-04-24T10:48:53;9.55;;;4.57;;
42124;SDS011;27787;44.594;11.046;2023-04-24T10:51:46;7.18;;;4.00;;
42124;SDS011;27787;44.594;11.046;2023-04-24T10:54:40;7.88;;;3.80;;
42124;SDS011;27787;44.594;11.046;2023-04-24T10:57:29;6.65;;;3.72;;
42124;SDS011;27787;44.594;11.046;2023-04-24T11:00:20;9.63;;;4.00;;
42124;SDS011;27787;44.594;11.046;2023-04-24T11:03:06;6.30;;;3.53;;
42124;SDS011;27787;44.594;11.046;2023-04-24T11:06:06;7.70;;;3.95;;
42124;SDS011;27787;44.594;11.046;2023-04-24T11:08:51;6.05;;;3.10;;
42124;SDS011;27787;44.594;11.046;2023-04-24T11:11:47;4.63;;;3.10;;
42124;SDS011;27787;44.594;11.046;2023-04-24T11:14:31;5.68;;;3.40;;
42124;SDS011;27787;44.594;11.046;2023-04-24T11:17:41;7.10;;;3.70;;
42124;SDS011;27787;44.594;11.046;2023-04-24T11:20:26;6.95;;;3.38;;
42124;SDS011;27787;44.594;11.046;2023-04-24T11:23:11;10.90;;;3.97;;
42124;SDS011;27787;44.594;11.046;2023-04-24T11:26:12;9.52;;;4.80;;
42124;SDS011;27787;44.594;11.046;2023-04-24T11:29:07;7.78;;;3.85;;
42124;SDS011;27787;44.594;11.046;2023-04-24T11:31:52;5.82;;;3.38;;
42124;SDS011;27787;44.594;11.046;2023-04-24T11:34:36;5.20;;;3.63;;
42124;SDS011;27787;44.594;11.046;2023-04-24T11:37:26;9.00;;;4.10;;
42124;SDS011;27787;44.594;11.046;2023-04-24T11:40:12;8.18;;;3.78;;
42124;SDS011;27787;44.594;11.046;2023-04-24T11:42:59;5.57;;;3.20;;
42124;SDS011;27787;44.594;11.046;2023-04-24T11:45:47;8.02;;;3.53;;
42124;SDS011;27787;44.594;11.046;2023-04-24T11:48:35;8.45;;;3.90;;
42124;SDS011;27787;44.594;11.046;2023-04-24T11:51:23;7.65;;;4.10;;
42124;SDS011;27787;44.594;11.046;2023-04-24T11:54:12;5.32;;;3.47;;
42124;SDS011;27787;44.594;11.046;2023-04-24T11:56:56;5.22;;;3.00;;
42124;SDS011;27787;44.594;11.046;2023-04-24T11:59:41;5.55;;;3.20;;
42124;SDS011;27787;44.594;11.046;2023-04-24T12:02:26;6.82;;;3.33;;
42124;SDS011;27787;44.594;11.046;2023-04-24T12:05:23;6.15;;;3.60;;
42124;SDS011;27787;44.594;11.046;2023-04-24T12:08:09;6.28;;;2.95;;
42124;SDS011;27787;44.594;11.046;2023-04-24T12:10:53;5.55;;;3.17;;
42124;SDS011;27787;44.594;11.046;2023-04-24T12:13:37;5.07;;;3.55;;
42124;SDS011;27787;44.594;11.046;2023-04-24T12:16:21;5.13;;;3.22;;
42124;SDS011;27787;44.594;11.046;2023-04-24T12:19:06;5.47;;;3.58;;
42124;SDS011;27787;44.594;11.046;2023-04-24T12:22:03;6.25;;;3.33;;
42124;SDS011;27787;44.594;11.046;2023-04-24T12:25:00;5.28;;;3.53;;
42124;SDS011;27787;44.594;11.046;2023-04-24T12:27:51;6.80;;;3.75;;
42124;SDS011;27787;44.594;11.046;2023-04-24T12:33:28;4.43;;;3.20;;
42124;SDS011;27787;44.594;11.046;2023-04-24T12:36:17;5.20;;;3.10;;
42124;SDS011;27787;44.594;11.046;2023-04-24T12:39:01;5.07;;;3.60;;
42124;SDS011;27787;44.594;11.046;2023-04-24T12:42:04;9.67;;;3.53;;
42124;SDS011;27787;44.594;11.046;2023-04-24T12:44:49;5.10;;;2.60;;
42124;SDS011;27787;44.594;11.046;2023-04-24T12:47:34;3.65;;;2.50;;
42124;SDS011;27787;44.594;11.046;2023-04-24T12:50:18;5.75;;;2.55;;
42124;SDS011;27787;44.594;11.046;2023-04-24T12:53:03;4.20;;;2.70;;
42124;SDS011;27787;44.594;11.046;2023-04-24T12:55:47;5.75;;;3.00;;
42124;SDS011;27787;44.594;11.046;2023-04-24T12:58:37;4.93;;;3.00;;
42124;SDS011;27787;44.594;11.046;2023-04-24T13:01:21;8.77;;;3.07;;
42124;SDS011;27787;44.594;11.046;2023-04-24T13:04:05;9.40;;;3.50;;
42124;SDS011;27787;44.594;11.046;2023-04-24T13:06:50;3.70;;;2.70;;
42124;SDS011;27787;44.594;11.046;2023-04-24T13:09:34;3.78;;;2.38;;
42124;SDS011;27787;44.594;11.046;2023-04-24T13:12:19;7.50;;;3.05;;
42124;SDS011;27787;44.594;11.046;2023-04-24T13:15:04;5.47;;;2.80;;
42124;SDS011;27787;44.594;11.046;2023-04-24T13:20:34;4.20;;;2.92;;
42124;SDS011;27787;44.594;11.046;2023-04-24T13:23:19;3.65;;;1.35;;
42124;SDS011;27787;44.594;11.046;2023-04-24T13:26:04;2.67;;;1.90;;
42124;SDS011;27787;44.594;11.046;2023-04-24T13:28:49;3.35;;;1.90;;
42124;SDS011;27787;44.594;11.046;2023-04-24T13:31:33;2.70;;;1.75;;
42124;SDS011;27787;44.594;11.046;2023-04-24T13:34:17;2.42;;;1.70;;
42124;SDS011;27787;44.594;11.046;2023-04-24T13:37:01;2.10;;;1.58;;
42124;SDS011;27787;44.594;11.046;2023-04-24T13:39:47;3.10;;;1.60;;
42124;SDS011;27787;44.594;11.046;2023-04-24T13:42:31;3.30;;;1.70;;
42124;SDS011;27787;44.594;11.046;2023-04-24T13:45:16;1.80;;;1.50;;
42124;SDS011;27787;44.594;11.046;2023-04-24T13:48:00;7.72;;;2.10;;
42124;SDS011;27787;44.594;11.046;2023-04-24T13:50:46;3.80;;;1.80;;
42124;SDS011;27787;44.594;11.046;2023-04-24T13:53:34;2.75;;;1.90;;
42124;SDS011;27787;44.594;11.046;2023-04-24T13:56:22;2.83;;;1.30;;
42124;SDS011;27787;44.594;11.046;2023-04-24T13:59:06;3.45;;;1.80;;
42124;SDS011;27787;44.594;11.046;2023-04-24T14:01:51;2.00;;;1.58;;
42124;SDS011;27787;44.594;11.046;2023-04-24T14:04:35;2.42;;;1.70;;
42124;SDS011;27787;44.594;11.046;2023-04-24T14:07:20;4.47;;;2.47;;
42124;SDS011;27787;44.594;11.046;2023-04-24T14:10:07;4.97;;;2.35;;
42124;SDS011;27787;44.594;11.046;2023-04-24T14:12:52;3.55;;;2.08;;
42124;SDS011;27787;44.594;11.046;2023-04-24T14:15:37;2.78;;;1.80;;
42124;SDS011;27787;44.594;11.046;2023-04-24T14:18:21;2.67;;;2.08;;
42124;SDS011;27787;44.594;11.046;2023-04-24T14:21:06;4.67;;;3.00;;
42124;SDS011;27787;44.594;11.046;2023-04-24T14:23:51;5.28;;;2.80;;
42124;SDS011;27787;44.594;11.046;2023-04-24T14:26:36;6.17;;;2.83;;
42124;SDS011;27787;44.594;11.046;2023-04-24T14:29:20;3.92;;;2.75;;
42124;SDS011;27787;44.594;11.046;2023-04-24T14:32:05;4.40;;;3.10;;
42124;SDS011;27787;44.594;11.046;2023-04-24T14:34:49;4.88;;;2.92;;
42124;SDS011;27787;44.594;11.046;2023-04-24T14:37:33;5.87;;;2.83;;
42124;SDS011;27787;44.594;11.046;2023-04-24T14:40:18;4.18;;;2.80;;
42124;SDS011;27787;44.594;11.046;2023-04-24T14:43:03;7.17;;;3.40;;
42124;SDS011;27787;44.594;11.046;2023-04-24T14:45:47;4.00;;;2.80;;
42124;SDS011;27787;44.594;11.046;2023-04-24T14:48:32;4.97;;;3.50;;
42124;SDS011;27787;44.594;11.046;2023-04-24T14:51:16;6.57;;;2.90;;
42124;SDS011;27787;44.594;11.046;2023-04-24T14:54:01;3.40;;;2.80;;
42124;SDS011;27787;44.594;11.046;2023-04-24T14:56:45;4.57;;;2.57;;
42124;SDS011;27787;44.594;11.046;2023-04-24T14:59:30;4.82;;;2.95;;
42124;SDS011;27787;44.594;11.046;2023-04-24T15:04:59;4.65;;;3.55;;
42124;SDS011;27787;44.594;11.046;2023-04-24T15:07:43;4.13;;;3.00;;
42124;SDS011;27787;44.594;11.046;2023-04-24T15:10:27;6.57;;;4.23;;
42124;SDS011;27787;44.594;11.046;2023-04-24T15:13:13;7.45;;;2.92;;
42124;SDS011;27787;44.594;11.046;2023-04-24T15:15:58;6.40;;;2.78;;
42124;SDS011;27787;44.594;11.046;2023-04-24T15:18:42;3.65;;;2.58;;
42124;SDS011;27787;44.594;11.046;2023-04-24T15:21:26;5.28;;;2.38;;
42124;SDS011;27787;44.594;11.046;2023-04-24T15:24:10;5.10;;;2.05;;
42124;SDS011;27787;44.594;11.046;2023-04-24T15:26:54;3.08;;;2.08;;
42124;SDS011;27787;44.594;11.046;2023-04-24T15:29:38;3.65;;;1.67;;
42124;SDS011;27787;44.594;11.046;2023-04-24T15:32:23;2.77;;;1.80;;
42124;SDS011;27787;44.594;11.046;2023-04-24T15:35:07;4.03;;;1.70;;
42124;SDS011;27787;44.594;11.046;2023-04-24T15:37:51;8.50;;;1.50;;
42124;SDS011;27787;44.594;11.046;2023-04-24T15:40:36;0.80;;;0.80;;
42124;SDS011;27787;44.594;11.046;2023-04-24T15:43:21;0.65;;;0.60;;
42124;SDS011;27787;44.594;11.046;2023-04-24T15:46:06;1.75;;;0.70;;
42124;SDS011;27787;44.594;11.046;2023-04-24T15:48:50;2.50;;;0.70;;
42124;SDS011;27787;44.594;11.046;2023-04-24T15:51:34;1.13;;;0.77;;
42124;SDS011;27787;44.594;11.046;2023-04-24T15:54:19;1.73;;;0.82;;
42124;SDS011;27787;44.594;11.046;2023-04-24T15:57:02;0.65;;;0.50;;
42124;SDS011;27787;44.594;11.046;2023-04-24T15:59:47;3.42;;;0.88;;
42124;SDS011;27787;44.594;11.046;2023-04-24T16:02:31;1.77;;;0.63;;
42124;SDS011;27787;44.594;11.046;2023-04-24T16:05:16;2.57;;;0.53;;
42124;SDS011;27787;44.594;11.046;2023-04-24T16:08:02;0.40;;;0.40;;
42124;SDS011;27787;44.594;11.046;2023-04-24T16:10:47;1.77;;;0.47;;
42124;SDS011;27787;44.594;11.046;2023-04-24T16:13:31;0.77;;;0.50;;
42124;SDS011;27787;44.594;11.046;2023-04-24T16:16:17;0.57;;;0.50;;
42124;SDS011;27787;44.594;11.046;2023-04-24T16:19:01;2.65;;;0.65;;
42124;SDS011;27787;44.594;11.046;2023-04-24T16:21:45;0.98;;;0.65;;
42124;SDS011;27787;44.594;11.046;2023-04-24T16:24:28;1.73;;;0.80;;
42124;SDS011;27787;44.594;11.046;2023-04-24T16:27:14;1.35;;;0.68;;
42124;SDS011;27787;44.594;11.046;2023-04-24T16:29:58;2.55;;;0.70;;